Sydney Kingsford Smith International Airport
YSSY : now visible

Airfield :











YOU CAN JOIN US ON...

 
LOGIN :

Register | Disclaimer

   EN    FR    IT 

 









Legend :    VFR   Marginal VFR   IFR   Intensive IFR   Very Intensive IFR
Visi :
Ceiling :
>= 8 km
>= 3000ft
5 to 8 km
1000 to 3000 ft
1500m to 5 km
500 to 1000 ft
800 to 1500m
200 to 500 ft
< 800m
< 200 ft
Symbols :   Thunderstorms  Fog  Heavy snow  Heavy precipitations  Wind > 20 kt







- Airport Elevation : 21 ft
- IATA code : SYD


YSSY - Sydney Kingsford Smith International

CURRENT METAR :
  • 170830Z 22013KT 9999 -SHRA FEW015 SCT040 BKN070 15/12 Q1020

EXPIRED METARs :
  • 170800Z 21014KT 9999 VCSH FEW025 SCT040 BKN065 15/12 Q1020 INTER 0830/1000 5000 SHRA BKN015
  • 170730Z 21017KT 9999 VCSH FEW030 SCT040 15/12 Q1019 FM0800 19013KT 9999 -SHRA SCT025 BKN035 INTER 0800/1000 5000 SHRA BKN015
  • 170700Z 20019KT 9999 VCSH SCT030 BKN060 15/12 Q1019 FM0800 19013KT 9999 -SHRA SCT025 BKN035 INTER 0730/1000 5000 SHRA BKN015
  • 170630Z 21020KT 9999 -SHRA FEW018 SCT025 BKN040 15/13 Q1019 FM0730 19013KT 9999 -SHRA SCT020 BKN035 INTER 0700/0930 5000 SHRA BKN015
  • 170600Z 21020KT 9999 -SHRA FEW018 SCT025 BKN040 15/13 Q1019 FM0630 19013KT 9999 -SHRA SCT020 BKN035 INTER 0600/0900 5000 SHRA BKN015

TAF TAF YSSY
Valid from the 17 at 06:00 until the 18 at 12:00 UTC


170512Z 1706/1812 19012KT 9999 -SHRA SCT025 BKN040
FM171400 25008KT 9999 -SHRA SCT030
FM171800 29008KT 9999 -SHRA SCT025
FM180000 29008KT 9999 SCT035
FM180300 24008KT 9999 SCT035 INTER 1706/1710 5000 SHRA BKN015
YMMM FIR / Oceania



MET'MAP, your aeronautical weather chart ! - Copyright ORBIFLY December 2007 - Disclaimer

ORBIFLY MET'MAP TEAM :

Programming & Development : Alexandra Zaïnal
Concept & Development : Baudouin d'Aumeries
Co-Development & Prog : Marc-Olivier Méhu
Technical & hardware support : Manuel Goepfert

Contact : metmap@orbifly.com




SOURCES & CREDITS :

   NOAA       Earth
Advisory